Father Pat — WDG2791 — position and weather

sailwx.info

Track history (hours):
 
Tides and Currents Weather Stations Pressure Air Temp Water Temp Dewpoint Dewpoint Depression Visibility Wind Speed Wind Dir Waves Ship Positions

Father Pat

Owner: Marquette Transportation Company Gulf-Inland, LLC, Jefferson, LA. More information available from US FCC via Universal Licensing System and Coast Guard Vessel Documentation Center.

Last reported at 2015-May-02 03:30 UTC. Time now 2015-May-03 08:46 UTC.
Position N 30°22' W 091°19'.

Type: Towing. MMSI: 367519320.

Date/timePositionNaut miles runAvg speedWind from/ knotsBaromVisibWave heightAir tempDewpointWater temp
2015-May-02 03:30N 30°22' W 091°19'5 4.9
2015-May-02 02:33N 30°26' W 091°16'3 3.0
2015-May-02 01:33N 30°26' W 091°12'1 0.6
2015-May-02 00:32N 30°25' W 091°12'1 1.2
2015-May-01 23:33N 30°24' W 091°12'0 0.0
2015-May-01 22:33N 30°24' W 091°12'0 0.0
2015-May-01 21:33N 30°24' W 091°12'0 0.0
2015-May-01 20:33N 30°24' W 091°12'0 0.0
2015-May-01 19:33N 30°24' W 091°12'0 0.2
2015-May-01 18:33N 30°24' W 091°12'2 2.2
2015-May-01 17:32N 30°22' W 091°14'1 0.7
2015-May-01 16:33N 30°23' W 091°14'0 0.0
2015-May-01 15:25N 30°23' W 091°14'1 0.6
2015-May-01 14:33N 30°23' W 091°14'2 1.8
2015-May-01 13:31N 30°21' W 091°14'3 3.4
2015-May-01 12:32N 30°21' W 091°10'2 1.8
2015-May-01 11:18N 30°19' W 091°12'45 1.9
2015-Apr-30 11:33N 29°60' W 090°25'4 4.2
2015-Apr-30 10:33N 29°57' W 090°22'13 3.3
2015-Apr-30 06:32N 29°55' W 090°07'4 3.9
2015-Apr-30 05:32N 29°57' W 090°04'2 1.8
2015-Apr-30 04:32N 29°58' W 090°02'1 0.6
2015-Apr-30 03:30N 29°59' W 090°01'0 0.0
2015-Apr-30 02:33N 29°59' W 090°01'0 0.0
2015-Apr-30 01:33N 29°59' W 090°01'0 0.0
2015-Apr-30 00:32N 29°59' W 090°01'0 0.4
2015-Apr-29 23:33N 29°59' W 090°01'1 1.1
2015-Apr-29 22:29N 29°60' W 090°00'0 0.0
2015-Apr-29 18:19N 29°60' W 090°00'1 0.0
2015-Apr-28 14:24N 29°59' W 090°01'1 1.1
2015-Apr-28 13:26N 29°58' W 090°02'1 0.7
2015-Apr-28 12:28N 29°57' W 090°02'0 0.0
2015-Apr-28 11:31N 29°57' W 090°02'0 0.0
2015-Apr-28 10:32N 29°57' W 090°02'0 0.0
2015-Apr-28 09:33N 29°57' W 090°02'0 0.0
2015-Apr-28 08:33N 29°57' W 090°02'0 0.0
2015-Apr-28 07:33N 29°57' W 090°02'0 0.0
2015-Apr-28 06:29N 29°57' W 090°02'0 0.0
2015-Apr-28 05:32N 29°57' W 090°02'0 0.0
2015-Apr-28 04:30N 29°57' W 090°02'0 0.0
2015-Apr-28 03:33N 29°57' W 090°02'0 0.0
2015-Apr-28 02:32N 29°57' W 090°02'0 0.0
2015-Apr-28 01:33N 29°57' W 090°02'0 0.0
2015-Apr-28 00:31N 29°57' W 090°02'0 0.0
2015-Apr-27 23:33N 29°57' W 090°02'0 0.0
2015-Apr-27 22:33N 29°57' W 090°02'0 0.0
2015-Apr-27 21:32N 29°57' W 090°02'11 0.6
2015-Apr-27 03:31N 29°58' W 090°15'14 2.1
2015-Apr-26 21:07N 29°56' W 089°59'6 0.6
2015-Apr-26 11:23N 29°51' W 090°02'31 3.8
2015-Apr-26 03:18N 29°34' W 090°32'3 4.7
2015-Apr-26 02:34N 29°35' W 090°36'4 4.3
2015-Apr-26 01:33N 29°36' W 090°40'3 3.0
2015-Apr-26 00:33N 29°34' W 090°43'2 2.3
2015-Apr-25 23:34N 29°33' W 090°45'2 2.4
2015-Apr-25 22:34N 29°32' W 090°48'6 5.5
2015-Apr-25 21:34N 29°33' W 090°54'5 5.3
2015-Apr-25 20:33N 29°37' W 090°59'  
2015-Apr-22 22:31N 29°29' W 094°52'5 5.5
2015-Apr-22 21:34N 29°33' W 094°55'5 5.4
2015-Apr-22 20:34N 29°38' W 094°58'5 5.1
2015-Apr-22 19:33N 29°42' W 095°01'5 4.6
2015-Apr-22 18:34N 29°46' W 095°04'1 0.6
2015-Apr-22 17:20N 29°46' W 095°05'0 0.3
2015-Apr-22 16:30N 29°46' W 095°05'1 1.1
2015-Apr-22 15:30N 29°46' W 095°06'0 0.0
2015-Apr-22 14:28N 29°46' W 095°06'1 1.0
2015-Apr-22 13:34N 29°46' W 095°06'3 3.4
2015-Apr-22 12:34N 29°45' W 095°10'0 0.4
2015-Apr-22 11:33N 29°45' W 095°10'5 5.5
2015-Apr-22 10:33N 29°44' W 095°03'6 6.1
2015-Apr-22 09:33N 29°40' W 094°58'7 7.2
2015-Apr-22 08:34N 29°34' W 094°55'  
Track history (hours):
 
Tides and Currents Weather Stations Pressure Air Temp Water Temp Dewpoint Dewpoint Depression Visibility Wind Speed Wind Dir Waves Ship Positions

Father Pat

Owner: Marquette Transportation Company Gulf-Inland, LLC, Jefferson, LA. More information available from US FCC via Universal Licensing System and Coast Guard Vessel Documentation Center.

Last reported at 2015-May-02 03:30 UTC. Time now 2015-May-03 08:46 UTC.
Position N 30°22' W 091°19'.

Type: Towing. MMSI: 367519320.

Date/timePositionNaut miles runAvg speedWind from/ knotsBaromVisibWave heightAir tempDewpointWater temp
2015-May-02 03:30N 30°22' W 091°19'5 4.9
2015-May-02 02:33N 30°26' W 091°16'3 3.0
2015-May-02 01:33N 30°26' W 091°12'1 0.6
2015-May-02 00:32N 30°25' W 091°12'1 1.2
2015-May-01 23:33N 30°24' W 091°12'0 0.0
2015-May-01 22:33N 30°24' W 091°12'0 0.0
2015-May-01 21:33N 30°24' W 091°12'0 0.0
2015-May-01 20:33N 30°24' W 091°12'0 0.0
2015-May-01 19:33N 30°24' W 091°12'0 0.2
2015-May-01 18:33N 30°24' W 091°12'2 2.2
2015-May-01 17:32N 30°22' W 091°14'1 0.7
2015-May-01 16:33N 30°23' W 091°14'0 0.0
2015-May-01 15:25N 30°23' W 091°14'1 0.6
2015-May-01 14:33N 30°23' W 091°14'2 1.8
2015-May-01 13:31N 30°21' W 091°14'3 3.4
2015-May-01 12:32N 30°21' W 091°10'2 1.8
2015-May-01 11:18N 30°19' W 091°12'45 1.9
2015-Apr-30 11:33N 29°60' W 090°25'4 4.2
2015-Apr-30 10:33N 29°57' W 090°22'13 3.3
2015-Apr-30 06:32N 29°55' W 090°07'4 3.9
2015-Apr-30 05:32N 29°57' W 090°04'2 1.8
2015-Apr-30 04:32N 29°58' W 090°02'1 0.6
2015-Apr-30 03:30N 29°59' W 090°01'0 0.0
2015-Apr-30 02:33N 29°59' W 090°01'0 0.0
2015-Apr-30 01:33N 29°59' W 090°01'0 0.0
2015-Apr-30 00:32N 29°59' W 090°01'0 0.4
2015-Apr-29 23:33N 29°59' W 090°01'1 1.1
2015-Apr-29 22:29N 29°60' W 090°00'0 0.0
2015-Apr-29 18:19N 29°60' W 090°00'1 0.0
2015-Apr-28 14:24N 29°59' W 090°01'1 1.1
2015-Apr-28 13:26N 29°58' W 090°02'1 0.7
2015-Apr-28 12:28N 29°57' W 090°02'0 0.0
2015-Apr-28 11:31N 29°57' W 090°02'0 0.0
2015-Apr-28 10:32N 29°57' W 090°02'0 0.0
2015-Apr-28 09:33N 29°57' W 090°02'0 0.0
2015-Apr-28 08:33N 29°57' W 090°02'0 0.0
2015-Apr-28 07:33N 29°57' W 090°02'0 0.0
2015-Apr-28 06:29N 29°57' W 090°02'0 0.0
2015-Apr-28 05:32N 29°57' W 090°02'0 0.0
2015-Apr-28 04:30N 29°57' W 090°02'0 0.0
2015-Apr-28 03:33N 29°57' W 090°02'0 0.0
2015-Apr-28 02:32N 29°57' W 090°02'0 0.0
2015-Apr-28 01:33N 29°57' W 090°02'0 0.0
2015-Apr-28 00:31N 29°57' W 090°02'0 0.0
2015-Apr-27 23:33N 29°57' W 090°02'0 0.0
2015-Apr-27 22:33N 29°57' W 090°02'0 0.0
2015-Apr-27 21:32N 29°57' W 090°02'11 0.6
2015-Apr-27 03:31N 29°58' W 090°15'14 2.1
2015-Apr-26 21:07N 29°56' W 089°59'6 0.6
2015-Apr-26 11:23N 29°51' W 090°02'31 3.8
2015-Apr-26 03:18N 29°34' W 090°32'3 4.7
2015-Apr-26 02:34N 29°35' W 090°36'4 4.3
2015-Apr-26 01:33N 29°36' W 090°40'3 3.0
2015-Apr-26 00:33N 29°34' W 090°43'2 2.3
2015-Apr-25 23:34N 29°33' W 090°45'2 2.4
2015-Apr-25 22:34N 29°32' W 090°48'6 5.5
2015-Apr-25 21:34N 29°33' W 090°54'5 5.3
2015-Apr-25 20:33N 29°37' W 090°59'  
2015-Apr-22 22:31N 29°29' W 094°52'5 5.5
2015-Apr-22 21:34N 29°33' W 094°55'5 5.4
2015-Apr-22 20:34N 29°38' W 094°58'5 5.1
2015-Apr-22 19:33N 29°42' W 095°01'5 4.6
2015-Apr-22 18:34N 29°46' W 095°04'1 0.6
2015-Apr-22 17:20N 29°46' W 095°05'0 0.3
2015-Apr-22 16:30N 29°46' W 095°05'1 1.1
2015-Apr-22 15:30N 29°46' W 095°06'0 0.0
2015-Apr-22 14:28N 29°46' W 095°06'1 1.0
2015-Apr-22 13:34N 29°46' W 095°06'3 3.4
2015-Apr-22 12:34N 29°45' W 095°10'0 0.4
2015-Apr-22 11:33N 29°45' W 095°10'5 5.5
2015-Apr-22 10:33N 29°44' W 095°03'6 6.1
2015-Apr-22 09:33N 29°40' W 094°58'7 7.2
2015-Apr-22 08:34N 29°34' W 094°55'  

Dump ship's entire track history